Forside
METAR-TAF:

METAR-TAF

Lufthavne :

Olieplatform

P11-b, Holland

Breddekreds: 52-21-36N, længdekreds: 3-20-30E, højde: 24 m

Aktuelle vejr

Denne rapport blev lavet for 26 minutter siden, kl. 17:25 UTC
Vind 22 kt fra vestnordvest med vindstød på up til 33 kt, varierende mellem vestsydvest og nordvest
Temperatur 9°C
Fugtighed 61%
Tryk 1016 hPa
Sigt 10 km eller mere

METAR: EHPG 231725Z AUTO 29022G33KT 250V320 9999 NSC 09/02 Q1016

Tid: 18:51 (17:51 UTC)


TAF: fraværende

Vejrobservationer og prognoser fra mere end 4000 lufthavne (METAR og TAF).

De gule og røde prikker repræsenterer de meteorologiske stationer.

Flyt musen over at se navnet på stationen.

Så klik over at se vejr observationer og prognoser.

At skifte det kort: Klik på de grønne knapper med et sort kors for at zoome ind; på den grønne knap med en bindestreg for at zoome ud; eller på de grønne pile for tilstødende kort.


METAR-TAF: